sensor_id;sensor_type;location;lat;lon;timestamp;P1;durP1;ratioP1;P2;durP2;ratioP2
60243;SDS011;46106;51.468;5.814;2022-12-05T00:01:32;94.53;;;33.05;;
60243;SDS011;46106;51.468;5.814;2022-12-05T00:04:00;91.70;;;32.15;;
60243;SDS011;46106;51.468;5.814;2022-12-05T00:06:28;97.22;;;30.60;;
60243;SDS011;46106;51.468;5.814;2022-12-05T00:08:56;93.88;;;33.22;;
60243;SDS011;46106;51.468;5.814;2022-12-05T00:11:24;102.20;;;31.95;;
60243;SDS011;46106;51.468;5.814;2022-12-05T00:13:52;95.57;;;32.92;;
60243;SDS011;46106;51.468;5.814;2022-12-05T00:16:19;107.72;;;35.83;;
60243;SDS011;46106;51.468;5.814;2022-12-05T00:18:47;94.25;;;33.55;;
60243;SDS011;46106;51.468;5.814;2022-12-05T00:21:23;102.35;;;34.92;;
60243;SDS011;46106;51.468;5.814;2022-12-05T00:23:50;126.20;;;35.83;;
60243;SDS011;46106;51.468;5.814;2022-12-05T00:26:18;105.80;;;35.80;;
60243;SDS011;46106;51.468;5.814;2022-12-05T00:28:44;100.00;;;34.42;;
60243;SDS011;46106;51.468;5.814;2022-12-05T00:31:12;97.55;;;33.40;;
60243;SDS011;46106;51.468;5.814;2022-12-05T00:33:40;102.03;;;34.90;;
60243;SDS011;46106;51.468;5.814;2022-12-05T00:36:07;111.68;;;34.97;;
60243;SDS011;46106;51.468;5.814;2022-12-05T00:38:38;100.20;;;34.20;;
60243;SDS011;46106;51.468;5.814;2022-12-05T00:41:04;105.13;;;34.40;;
60243;SDS011;46106;51.468;5.814;2022-12-05T00:43:31;111.78;;;35.58;;
60243;SDS011;46106;51.468;5.814;2022-12-05T00:46:04;99.63;;;34.20;;
60243;SDS011;46106;51.468;5.814;2022-12-05T00:48:35;114.10;;;37.20;;
60243;SDS011;46106;51.468;5.814;2022-12-05T00:53:43;107.93;;;35.47;;
60243;SDS011;46106;51.468;5.814;2022-12-05T00:56:10;106.43;;;36.78;;
60243;SDS011;46106;51.468;5.814;2022-12-05T00:58:38;109.80;;;36.55;;
60243;SDS011;46106;51.468;5.814;2022-12-05T01:01:08;120.88;;;37.05;;
60243;SDS011;46106;51.468;5.814;2022-12-05T01:03:34;113.82;;;36.20;;
60243;SDS011;46106;51.468;5.814;2022-12-05T01:05:59;106.38;;;36.13;;
60243;SDS011;46106;51.468;5.814;2022-12-05T01:08:25;114.13;;;34.20;;
60243;SDS011;46106;51.468;5.814;2022-12-05T01:10:52;100.15;;;34.80;;
60243;SDS011;46106;51.468;5.814;2022-12-05T01:13:21;111.65;;;34.95;;
60243;SDS011;46106;51.468;5.814;2022-12-05T01:15:47;103.65;;;34.22;;
60243;SDS011;46106;51.468;5.814;2022-12-05T01:18:12;104.13;;;34.55;;
60243;SDS011;46106;51.468;5.814;2022-12-05T01:20:39;118.05;;;38.30;;
60243;SDS011;46106;51.468;5.814;2022-12-05T01:23:05;115.00;;;36.03;;
60243;SDS011;46106;51.468;5.814;2022-12-05T01:25:31;114.65;;;36.28;;
60243;SDS011;46106;51.468;5.814;2022-12-05T01:27:57;105.68;;;35.78;;
60243;SDS011;46106;51.468;5.814;2022-12-05T01:30:23;125.47;;;38.13;;
60243;SDS011;46106;51.468;5.814;2022-12-05T01:32:48;102.45;;;36.08;;
60243;SDS011;46106;51.468;5.814;2022-12-05T01:35:14;115.75;;;38.30;;
60243;SDS011;46106;51.468;5.814;2022-12-05T01:37:40;119.03;;;36.70;;
60243;SDS011;46106;51.468;5.814;2022-12-05T01:40:08;124.15;;;38.00;;
60243;SDS011;46106;51.468;5.814;2022-12-05T01:42:34;105.72;;;36.38;;
60243;SDS011;46106;51.468;5.814;2022-12-05T01:45:05;116.40;;;36.47;;
60243;SDS011;46106;51.468;5.814;2022-12-05T01:47:38;116.00;;;35.17;;
60243;SDS011;46106;51.468;5.814;2022-12-05T01:50:04;111.72;;;36.78;;
60243;SDS011;46106;51.468;5.814;2022-12-05T01:52:30;120.55;;;37.17;;
60243;SDS011;46106;51.468;5.814;2022-12-05T01:55:06;118.85;;;36.40;;
60243;SDS011;46106;51.468;5.814;2022-12-05T01:57:36;119.00;;;37.65;;
60243;SDS011;46106;51.468;5.814;2022-12-05T02:00:04;111.32;;;36.10;;
60243;SDS011;46106;51.468;5.814;2022-12-05T02:05:05;109.07;;;34.58;;
60243;SDS011;46106;51.468;5.814;2022-12-05T02:07:34;109.07;;;36.03;;
60243;SDS011;46106;51.468;5.814;2022-12-05T02:10:03;115.88;;;35.95;;
60243;SDS011;46106;51.468;5.814;2022-12-05T02:12:30;119.35;;;37.92;;
60243;SDS011;46106;51.468;5.814;2022-12-05T02:15:12;129.55;;;38.65;;
60243;SDS011;46106;51.468;5.814;2022-12-05T02:17:53;114.85;;;37.78;;
60243;SDS011;46106;51.468;5.814;2022-12-05T02:20:31;125.57;;;35.20;;
60243;SDS011;46106;51.468;5.814;2022-12-05T02:25:50;126.82;;;37.83;;
60243;SDS011;46106;51.468;5.814;2022-12-05T02:31:31;116.53;;;37.57;;
60243;SDS011;46106;51.468;5.814;2022-12-05T02:37:27;128.32;;;37.25;;
60243;SDS011;46106;51.468;5.814;2022-12-05T02:40:09;121.15;;;36.88;;
60243;SDS011;46106;51.468;5.814;2022-12-05T02:45:19;112.28;;;37.10;;
60243;SDS011;46106;51.468;5.814;2022-12-05T02:47:50;123.70;;;37.95;;
60243;SDS011;46106;51.468;5.814;2022-12-05T02:50:18;137.02;;;39.40;;
60243;SDS011;46106;51.468;5.814;2022-12-05T02:52:47;133.15;;;38.80;;
60243;SDS011;46106;51.468;5.814;2022-12-05T02:55:15;124.15;;;38.33;;
60243;SDS011;46106;51.468;5.814;2022-12-05T02:57:45;139.10;;;39.28;;
60243;SDS011;46106;51.468;5.814;2022-12-05T03:00:15;124.25;;;39.28;;
60243;SDS011;46106;51.468;5.814;2022-12-05T03:02:41;136.65;;;39.03;;
60243;SDS011;46106;51.468;5.814;2022-12-05T03:08:00;131.68;;;41.42;;
60243;SDS011;46106;51.468;5.814;2022-12-05T03:10:29;127.82;;;38.67;;
60243;SDS011;46106;51.468;5.814;2022-12-05T03:12:58;139.07;;;40.40;;
60243;SDS011;46106;51.468;5.814;2022-12-05T03:15:27;119.90;;;39.33;;
60243;SDS011;46106;51.468;5.814;2022-12-05T03:20:35;143.30;;;39.60;;
60243;SDS011;46106;51.468;5.814;2022-12-05T03:23:12;143.07;;;41.10;;
60243;SDS011;46106;51.468;5.814;2022-12-05T03:26:00;144.65;;;41.53;;
60243;SDS011;46106;51.468;5.814;2022-12-05T03:31:11;145.68;;;42.40;;
60243;SDS011;46106;51.468;5.814;2022-12-05T03:33:42;130.68;;;38.05;;
60243;SDS011;46106;51.468;5.814;2022-12-05T03:38:49;136.32;;;39.65;;
60243;SDS011;46106;51.468;5.814;2022-12-05T03:41:40;143.50;;;38.90;;
60243;SDS011;46106;51.468;5.814;2022-12-05T03:44:29;150.15;;;39.58;;
60243;SDS011;46106;51.468;5.814;2022-12-05T03:47:06;132.55;;;38.38;;
60243;SDS011;46106;51.468;5.814;2022-12-05T03:49:46;141.75;;;40.83;;
60243;SDS011;46106;51.468;5.814;2022-12-05T03:54:59;141.75;;;42.15;;
60243;SDS011;46106;51.468;5.814;2022-12-05T03:57:32;149.18;;;42.58;;
60243;SDS011;46106;51.468;5.814;2022-12-05T04:00:04;142.05;;;39.67;;
60243;SDS011;46106;51.468;5.814;2022-12-05T04:02:38;136.75;;;41.90;;
60243;SDS011;46106;51.468;5.814;2022-12-05T04:05:13;136.07;;;40.92;;
60243;SDS011;46106;51.468;5.814;2022-12-05T04:07:45;151.52;;;42.85;;
60243;SDS011;46106;51.468;5.814;2022-12-05T04:10:33;134.25;;;39.70;;
60243;SDS011;46106;51.468;5.814;2022-12-05T04:13:12;146.48;;;41.40;;
60243;SDS011;46106;51.468;5.814;2022-12-05T04:16:27;139.32;;;41.38;;
60243;SDS011;46106;51.468;5.814;2022-12-05T04:18:57;135.50;;;42.35;;
60243;SDS011;46106;51.468;5.814;2022-12-05T04:21:29;139.73;;;40.53;;
60243;SDS011;46106;51.468;5.814;2022-12-05T04:24:27;138.27;;;39.72;;
60243;SDS011;46106;51.468;5.814;2022-12-05T04:27:30;159.02;;;43.08;;
60243;SDS011;46106;51.468;5.814;2022-12-05T04:30:05;141.73;;;38.70;;
60243;SDS011;46106;51.468;5.814;2022-12-05T04:35:13;150.15;;;41.65;;
60243;SDS011;46106;51.468;5.814;2022-12-05T04:37:48;153.25;;;41.92;;
60243;SDS011;46106;51.468;5.814;2022-12-05T04:40:28;160.70;;;44.17;;
60243;SDS011;46106;51.468;5.814;2022-12-05T04:43:05;165.45;;;42.80;;
60243;SDS011;46106;51.468;5.814;2022-12-05T04:45:33;153.63;;;41.20;;
60243;SDS011;46106;51.468;5.814;2022-12-05T04:48:03;165.55;;;42.90;;
60243;SDS011;46106;51.468;5.814;2022-12-05T04:50:34;156.20;;;43.10;;
60243;SDS011;46106;51.468;5.814;2022-12-05T04:53:02;148.93;;;43.40;;
60243;SDS011;46106;51.468;5.814;2022-12-05T04:55:30;146.90;;;41.20;;
60243;SDS011;46106;51.468;5.814;2022-12-05T05:01:09;146.43;;;39.67;;
60243;SDS011;46106;51.468;5.814;2022-12-05T05:03:44;150.87;;;40.53;;
60243;SDS011;46106;51.468;5.814;2022-12-05T05:06:15;149.15;;;41.22;;
60243;SDS011;46106;51.468;5.814;2022-12-05T05:08:46;158.15;;;43.15;;
60243;SDS011;46106;51.468;5.814;2022-12-05T05:11:14;151.05;;;39.95;;
60243;SDS011;46106;51.468;5.814;2022-12-05T05:13:47;151.45;;;43.00;;
60243;SDS011;46106;51.468;5.814;2022-12-05T05:16:16;170.48;;;44.75;;
60243;SDS011;46106;51.468;5.814;2022-12-05T05:18:47;152.15;;;42.85;;
60243;SDS011;46106;51.468;5.814;2022-12-05T05:21:18;161.70;;;43.50;;
60243;SDS011;46106;51.468;5.814;2022-12-05T05:23:51;180.15;;;46.10;;
60243;SDS011;46106;51.468;5.814;2022-12-05T05:26:17;169.88;;;45.20;;
60243;SDS011;46106;51.468;5.814;2022-12-05T05:28:44;161.50;;;44.15;;
60243;SDS011;46106;51.468;5.814;2022-12-05T05:31:10;184.57;;;45.28;;
60243;SDS011;46106;51.468;5.814;2022-12-05T05:33:36;178.95;;;45.05;;
60243;SDS011;46106;51.468;5.814;2022-12-05T05:36:05;175.00;;;44.88;;
60243;SDS011;46106;51.468;5.814;2022-12-05T05:38:40;179.38;;;46.17;;
60243;SDS011;46106;51.468;5.814;2022-12-05T05:41:13;204.00;;;47.72;;
60243;SDS011;46106;51.468;5.814;2022-12-05T05:43:40;180.25;;;46.95;;
60243;SDS011;46106;51.468;5.814;2022-12-05T05:46:06;171.98;;;42.80;;
60243;SDS011;46106;51.468;5.814;2022-12-05T05:48:31;190.18;;;44.78;;
60243;SDS011;46106;51.468;5.814;2022-12-05T05:50:58;201.00;;;47.95;;
60243;SDS011;46106;51.468;5.814;2022-12-05T05:53:24;184.60;;;45.83;;
60243;SDS011;46106;51.468;5.814;2022-12-05T05:55:49;207.02;;;46.58;;
60243;SDS011;46106;51.468;5.814;2022-12-05T05:58:15;199.27;;;46.58;;
60243;SDS011;46106;51.468;5.814;2022-12-05T06:00:40;192.93;;;46.15;;
60243;SDS011;46106;51.468;5.814;2022-12-05T06:03:06;209.18;;;47.55;;
60243;SDS011;46106;51.468;5.814;2022-12-05T06:05:34;209.32;;;49.78;;
60243;SDS011;46106;51.468;5.814;2022-12-05T06:07:59;197.35;;;48.40;;
60243;SDS011;46106;51.468;5.814;2022-12-05T06:10:25;206.75;;;49.28;;
60243;SDS011;46106;51.468;5.814;2022-12-05T06:12:50;192.63;;;47.95;;
60243;SDS011;46106;51.468;5.814;2022-12-05T06:15:16;218.25;;;49.72;;
60243;SDS011;46106;51.468;5.814;2022-12-05T06:17:42;218.80;;;51.67;;
60243;SDS011;46106;51.468;5.814;2022-12-05T06:20:07;208.98;;;46.22;;
60243;SDS011;46106;51.468;5.814;2022-12-05T06:22:33;215.15;;;51.08;;
60243;SDS011;46106;51.468;5.814;2022-12-05T06:24:58;197.07;;;46.03;;
60243;SDS011;46106;51.468;5.814;2022-12-05T06:27:24;211.82;;;47.40;;
60243;SDS011;46106;51.468;5.814;2022-12-05T06:29:49;204.27;;;47.75;;
60243;SDS011;46106;51.468;5.814;2022-12-05T06:32:15;216.40;;;50.08;;
60243;SDS011;46106;51.468;5.814;2022-12-05T06:34:40;206.35;;;47.85;;
60243;SDS011;46106;51.468;5.814;2022-12-05T06:37:06;198.23;;;47.97;;
60243;SDS011;46106;51.468;5.814;2022-12-05T06:39:32;197.10;;;46.63;;
60243;SDS011;46106;51.468;5.814;2022-12-05T06:41:57;203.43;;;47.75;;
60243;SDS011;46106;51.468;5.814;2022-12-05T06:44:23;194.85;;;45.30;;
60243;SDS011;46106;51.468;5.814;2022-12-05T06:46:51;207.55;;;46.42;;
60243;SDS011;46106;51.468;5.814;2022-12-05T06:49:17;199.10;;;48.80;;
60243;SDS011;46106;51.468;5.814;2022-12-05T06:51:43;194.80;;;45.70;;
60243;SDS011;46106;51.468;5.814;2022-12-05T06:54:10;214.48;;;46.80;;
60243;SDS011;46106;51.468;5.814;2022-12-05T06:56:36;200.45;;;48.38;;
60243;SDS011;46106;51.468;5.814;2022-12-05T06:59:02;204.45;;;47.45;;
60243;SDS011;46106;51.468;5.814;2022-12-05T07:01:27;203.75;;;47.45;;
60243;SDS011;46106;51.468;5.814;2022-12-05T07:04:19;197.68;;;47.70;;
60243;SDS011;46106;51.468;5.814;2022-12-05T07:06:49;187.43;;;46.75;;
60243;SDS011;46106;51.468;5.814;2022-12-05T07:09:17;193.75;;;45.78;;
60243;SDS011;46106;51.468;5.814;2022-12-05T07:11:48;179.48;;;44.60;;
60243;SDS011;46106;51.468;5.814;2022-12-05T07:14:14;203.00;;;48.85;;
60243;SDS011;46106;51.468;5.814;2022-12-05T07:16:40;191.80;;;45.85;;
60243;SDS011;46106;51.468;5.814;2022-12-05T07:19:06;196.95;;;45.92;;
60243;SDS011;46106;51.468;5.814;2022-12-05T07:21:31;200.40;;;47.13;;
60243;SDS011;46106;51.468;5.814;2022-12-05T07:23:57;186.80;;;45.05;;
60243;SDS011;46106;51.468;5.814;2022-12-05T07:26:23;205.95;;;45.70;;
60243;SDS011;46106;51.468;5.814;2022-12-05T07:28:55;186.93;;;44.78;;
60243;SDS011;46106;51.468;5.814;2022-12-05T07:31:21;186.05;;;43.92;;
60243;SDS011;46106;51.468;5.814;2022-12-05T07:33:50;190.23;;;42.67;;
60243;SDS011;46106;51.468;5.814;2022-12-05T07:36:17;183.48;;;44.08;;
60243;SDS011;46106;51.468;5.814;2022-12-05T07:38:44;176.90;;;44.10;;
60243;SDS011;46106;51.468;5.814;2022-12-05T07:41:24;158.02;;;41.97;;
60243;SDS011;46106;51.468;5.814;2022-12-05T07:43:51;165.70;;;43.50;;
60243;SDS011;46106;51.468;5.814;2022-12-05T07:46:18;159.85;;;40.60;;
60243;SDS011;46106;51.468;5.814;2022-12-05T07:48:44;169.93;;;41.05;;
60243;SDS011;46106;51.468;5.814;2022-12-05T07:51:11;181.65;;;43.40;;
60243;SDS011;46106;51.468;5.814;2022-12-05T07:53:36;166.23;;;42.13;;
60243;SDS011;46106;51.468;5.814;2022-12-05T07:56:04;176.15;;;45.45;;
60243;SDS011;46106;51.468;5.814;2022-12-05T07:58:34;180.02;;;44.75;;
60243;SDS011;46106;51.468;5.814;2022-12-05T08:01:09;162.20;;;39.20;;
60243;SDS011;46106;51.468;5.814;2022-12-05T08:03:36;160.77;;;39.70;;
60243;SDS011;46106;51.468;5.814;2022-12-05T08:06:03;170.75;;;42.15;;
60243;SDS011;46106;51.468;5.814;2022-12-05T08:08:32;164.85;;;42.03;;
60243;SDS011;46106;51.468;5.814;2022-12-05T08:11:07;156.75;;;39.63;;
60243;SDS011;46106;51.468;5.814;2022-12-05T08:13:35;166.23;;;43.08;;
60243;SDS011;46106;51.468;5.814;2022-12-05T08:16:05;183.55;;;43.35;;
60243;SDS011;46106;51.468;5.814;2022-12-05T08:18:34;182.73;;;40.30;;
60243;SDS011;46106;51.468;5.814;2022-12-05T08:21:03;181.55;;;43.60;;
60243;SDS011;46106;51.468;5.814;2022-12-05T08:23:30;183.52;;;43.70;;
60243;SDS011;46106;51.468;5.814;2022-12-05T08:26:30;187.43;;;43.60;;
60243;SDS011;46106;51.468;5.814;2022-12-05T08:28:53;170.40;;;41.78;;
60243;SDS011;46106;51.468;5.814;2022-12-05T08:31:20;168.25;;;43.60;;
60243;SDS011;46106;51.468;5.814;2022-12-05T08:33:48;190.70;;;46.05;;
60243;SDS011;46106;51.468;5.814;2022-12-05T08:36:15;184.68;;;42.58;;
60243;SDS011;46106;51.468;5.814;2022-12-05T08:38:42;197.00;;;45.15;;
60243;SDS011;46106;51.468;5.814;2022-12-05T08:41:11;201.50;;;44.92;;
60243;SDS011;46106;51.468;5.814;2022-12-05T08:43:42;210.50;;;44.83;;
60243;SDS011;46106;51.468;5.814;2022-12-05T08:46:08;205.15;;;46.33;;
60243;SDS011;46106;51.468;5.814;2022-12-05T08:48:34;198.20;;;46.53;;
60243;SDS011;46106;51.468;5.814;2022-12-05T08:51:07;209.70;;;47.78;;
60243;SDS011;46106;51.468;5.814;2022-12-05T08:53:35;186.23;;;44.85;;
60243;SDS011;46106;51.468;5.814;2022-12-05T08:56:03;177.18;;;43.70;;
60243;SDS011;46106;51.468;5.814;2022-12-05T08:58:30;182.70;;;42.88;;
60243;SDS011;46106;51.468;5.814;2022-12-05T09:01:03;174.55;;;42.05;;
60243;SDS011;46106;51.468;5.814;2022-12-05T09:03:28;194.82;;;42.25;;
60243;SDS011;46106;51.468;5.814;2022-12-05T09:05:53;189.85;;;43.88;;
60243;SDS011;46106;51.468;5.814;2022-12-05T09:08:19;176.63;;;42.22;;
60243;SDS011;46106;51.468;5.814;2022-12-05T09:10:44;165.70;;;41.65;;
60243;SDS011;46106;51.468;5.814;2022-12-05T09:13:10;162.65;;;41.67;;
60243;SDS011;46106;51.468;5.814;2022-12-05T09:15:38;167.75;;;41.47;;
60243;SDS011;46106;51.468;5.814;2022-12-05T09:18:03;163.93;;;40.08;;
60243;SDS011;46106;51.468;5.814;2022-12-05T09:20:29;176.90;;;40.72;;
60243;SDS011;46106;51.468;5.814;2022-12-05T09:22:55;167.90;;;41.97;;
60243;SDS011;46106;51.468;5.814;2022-12-05T09:25:20;186.02;;;42.22;;
60243;SDS011;46106;51.468;5.814;2022-12-05T09:27:46;175.40;;;43.42;;
60243;SDS011;46106;51.468;5.814;2022-12-05T09:30:11;173.88;;;42.28;;
60243;SDS011;46106;51.468;5.814;2022-12-05T09:32:37;164.18;;;41.13;;
60243;SDS011;46106;51.468;5.814;2022-12-05T09:35:02;160.52;;;39.78;;
60243;SDS011;46106;51.468;5.814;2022-12-05T09:37:28;150.90;;;39.17;;
60243;SDS011;46106;51.468;5.814;2022-12-05T09:39:56;141.07;;;39.08;;
60243;SDS011;46106;51.468;5.814;2022-12-05T09:42:38;147.13;;;38.90;;
60243;SDS011;46106;51.468;5.814;2022-12-05T09:45:25;146.82;;;39.13;;
60243;SDS011;46106;51.468;5.814;2022-12-05T09:47:59;136.52;;;36.40;;
60243;SDS011;46106;51.468;5.814;2022-12-05T09:50:32;133.55;;;36.63;;
60243;SDS011;46106;51.468;5.814;2022-12-05T09:58:18;102.30;;;30.45;;
60243;SDS011;46106;51.468;5.814;2022-12-05T10:00:48;94.25;;;29.95;;
60243;SDS011;46106;51.468;5.814;2022-12-05T10:03:21;109.13;;;31.92;;
60243;SDS011;46106;51.468;5.814;2022-12-05T10:11:49;109.95;;;33.58;;
60243;SDS011;46106;51.468;5.814;2022-12-05T10:17:21;116.85;;;34.13;;
60243;SDS011;46106;51.468;5.814;2022-12-05T10:19:58;124.22;;;34.90;;
60243;SDS011;46106;51.468;5.814;2022-12-05T10:22:29;114.07;;;33.85;;
60243;SDS011;46106;51.468;5.814;2022-12-05T10:25:04;90.78;;;28.75;;
60243;SDS011;46106;51.468;5.814;2022-12-05T10:27:41;99.80;;;30.98;;
60243;SDS011;46106;51.468;5.814;2022-12-05T10:30:15;95.88;;;29.75;;
60243;SDS011;46106;51.468;5.814;2022-12-05T10:35:22;91.85;;;30.27;;
60243;SDS011;46106;51.468;5.814;2022-12-05T10:37:55;95.18;;;30.42;;
60243;SDS011;46106;51.468;5.814;2022-12-05T10:40:25;93.28;;;30.05;;
60243;SDS011;46106;51.468;5.814;2022-12-05T10:42:57;98.28;;;30.20;;
60243;SDS011;46106;51.468;5.814;2022-12-05T10:45:22;96.47;;;30.52;;
60243;SDS011;46106;51.468;5.814;2022-12-05T10:47:52;95.47;;;31.45;;
60243;SDS011;46106;51.468;5.814;2022-12-05T10:50:30;106.70;;;31.20;;
60243;SDS011;46106;51.468;5.814;2022-12-05T10:52:58;108.78;;;31.42;;
60243;SDS011;46106;51.468;5.814;2022-12-05T10:58:09;105.03;;;31.27;;
60243;SDS011;46106;51.468;5.814;2022-12-05T11:03:19;100.47;;;31.30;;
60243;SDS011;46106;51.468;5.814;2022-12-05T11:05:48;91.10;;;29.95;;
60243;SDS011;46106;51.468;5.814;2022-12-05T11:08:22;96.82;;;29.58;;
60243;SDS011;46106;51.468;5.814;2022-12-05T11:13:30;97.40;;;30.70;;
60243;SDS011;46106;51.468;5.814;2022-12-05T11:15:57;99.68;;;29.95;;
60243;SDS011;46106;51.468;5.814;2022-12-05T11:18:32;95.25;;;30.05;;
60243;SDS011;46106;51.468;5.814;2022-12-05T11:21:11;105.72;;;33.20;;
60243;SDS011;46106;51.468;5.814;2022-12-05T11:23:39;93.20;;;30.25;;
60243;SDS011;46106;51.468;5.814;2022-12-05T11:26:13;90.25;;;30.90;;
60243;SDS011;46106;51.468;5.814;2022-12-05T11:28:45;94.20;;;29.85;;
60243;SDS011;46106;51.468;5.814;2022-12-05T11:33:36;114.78;;;30.35;;
60243;SDS011;46106;51.468;5.814;2022-12-05T11:36:10;85.88;;;29.33;;
60243;SDS011;46106;51.468;5.814;2022-12-05T11:38:43;74.20;;;26.45;;
60243;SDS011;46106;51.468;5.814;2022-12-05T11:56:47;79.60;;;26.17;;
60243;SDS011;46106;51.468;5.814;2022-12-05T12:08:28;89.10;;;27.17;;
60243;SDS011;46106;51.468;5.814;2022-12-05T12:19:32;69.50;;;24.85;;
60243;SDS011;46106;51.468;5.814;2022-12-05T12:28:13;75.68;;;25.13;;
60243;SDS011;46106;51.468;5.814;2022-12-05T12:33:57;89.65;;;29.73;;
60243;SDS011;46106;51.468;5.814;2022-12-05T12:36:59;83.07;;;27.00;;
60243;SDS011;46106;51.468;5.814;2022-12-05T12:42:31;81.47;;;26.13;;
60243;SDS011;46106;51.468;5.814;2022-12-05T12:45:16;78.70;;;26.48;;
60243;SDS011;46106;51.468;5.814;2022-12-05T12:50:34;86.75;;;28.17;;
60243;SDS011;46106;51.468;5.814;2022-12-05T13:06:46;87.10;;;26.70;;
60243;SDS011;46106;51.468;5.814;2022-12-05T13:12:07;82.55;;;27.27;;
60243;SDS011;46106;51.468;5.814;2022-12-05T13:14:37;88.82;;;27.52;;
60243;SDS011;46106;51.468;5.814;2022-12-05T13:17:09;93.90;;;28.48;;
60243;SDS011;46106;51.468;5.814;2022-12-05T13:22:12;90.93;;;28.85;;
60243;SDS011;46106;51.468;5.814;2022-12-05T13:24:40;97.35;;;30.48;;
60243;SDS011;46106;51.468;5.814;2022-12-05T13:27:12;86.65;;;29.40;;
60243;SDS011;46106;51.468;5.814;2022-12-05T13:29:51;94.22;;;28.27;;
60243;SDS011;46106;51.468;5.814;2022-12-05T13:32:32;83.97;;;27.70;;
60243;SDS011;46106;51.468;5.814;2022-12-05T13:37:31;71.70;;;25.70;;
60243;SDS011;46106;51.468;5.814;2022-12-05T13:40:21;72.00;;;25.05;;
60243;SDS011;46106;51.468;5.814;2022-12-05T13:43:09;73.95;;;24.55;;
60243;SDS011;46106;51.468;5.814;2022-12-05T13:45:37;73.97;;;25.20;;
60243;SDS011;46106;51.468;5.814;2022-12-05T13:48:20;68.28;;;24.55;;
60243;SDS011;46106;51.468;5.814;2022-12-05T13:53:28;74.88;;;25.55;;
60243;SDS011;46106;51.468;5.814;2022-12-05T14:06:53;75.07;;;25.88;;
60243;SDS011;46106;51.468;5.814;2022-12-05T14:09:00;69.57;;;22.75;;
60243;SDS011;46106;51.468;5.814;2022-12-05T14:11:27;64.57;;;22.00;;
60243;SDS011;46106;51.468;5.814;2022-12-05T14:13:52;59.35;;;22.52;;
60243;SDS011;46106;51.468;5.814;2022-12-05T14:24:49;65.97;;;23.58;;
60243;SDS011;46106;51.468;5.814;2022-12-05T14:32:49;59.75;;;21.20;;
60243;SDS011;46106;51.468;5.814;2022-12-05T14:35:24;67.10;;;23.10;;
60243;SDS011;46106;51.468;5.814;2022-12-05T14:37:55;71.75;;;21.98;;
60243;SDS011;46106;51.468;5.814;2022-12-05T14:40:41;72.35;;;24.42;;
60243;SDS011;46106;51.468;5.814;2022-12-05T14:43:24;64.78;;;24.02;;
60243;SDS011;46106;51.468;5.814;2022-12-05T14:50:57;67.65;;;24.00;;
60243;SDS011;46106;51.468;5.814;2022-12-05T15:00:53;73.25;;;23.60;;
60243;SDS011;46106;51.468;5.814;2022-12-05T15:03:23;70.82;;;22.52;;
60243;SDS011;46106;51.468;5.814;2022-12-05T15:05:53;74.90;;;25.55;;
60243;SDS011;46106;51.468;5.814;2022-12-05T15:08:19;72.03;;;24.30;;
60243;SDS011;46106;51.468;5.814;2022-12-05T15:10:45;70.95;;;24.38;;
60243;SDS011;46106;51.468;5.814;2022-12-05T15:13:21;80.55;;;25.30;;
60243;SDS011;46106;51.468;5.814;2022-12-05T15:16:00;82.78;;;26.55;;
60243;SDS011;46106;51.468;5.814;2022-12-05T15:18:33;83.70;;;24.80;;
60243;SDS011;46106;51.468;5.814;2022-12-05T15:21:20;88.38;;;26.95;;
60243;SDS011;46106;51.468;5.814;2022-12-05T15:29:06;89.63;;;27.58;;
60243;SDS011;46106;51.468;5.814;2022-12-05T15:37:27;84.47;;;28.48;;
60243;SDS011;46106;51.468;5.814;2022-12-05T15:40:07;98.18;;;28.13;;
60243;SDS011;46106;51.468;5.814;2022-12-05T15:47:46;110.65;;;34.00;;
60243;SDS011;46106;51.468;5.814;2022-12-05T15:50:22;123.63;;;35.97;;
60243;SDS011;46106;51.468;5.814;2022-12-05T15:58:24;111.85;;;35.42;;
60243;SDS011;46106;51.468;5.814;2022-12-05T16:00:57;130.05;;;38.97;;
60243;SDS011;46106;51.468;5.814;2022-12-05T16:03:32;118.57;;;36.72;;
60243;SDS011;46106;51.468;5.814;2022-12-05T16:06:36;123.15;;;34.58;;
60243;SDS011;46106;51.468;5.814;2022-12-05T16:09:06;116.78;;;35.40;;
60243;SDS011;46106;51.468;5.814;2022-12-05T16:11:37;116.97;;;35.72;;
60243;SDS011;46106;51.468;5.814;2022-12-05T16:14:03;128.63;;;37.53;;
60243;SDS011;46106;51.468;5.814;2022-12-05T16:16:32;135.73;;;40.65;;
60243;SDS011;46106;51.468;5.814;2022-12-05T16:19:12;146.98;;;43.70;;
60243;SDS011;46106;51.468;5.814;2022-12-05T16:21:41;144.02;;;42.70;;
60243;SDS011;46106;51.468;5.814;2022-12-05T16:27:01;118.35;;;35.13;;
60243;SDS011;46106;51.468;5.814;2022-12-05T16:29:29;106.22;;;31.90;;
60243;SDS011;46106;51.468;5.814;2022-12-05T16:31:59;108.80;;;30.92;;
60243;SDS011;46106;51.468;5.814;2022-12-05T16:34:26;97.20;;;28.60;;
60243;SDS011;46106;51.468;5.814;2022-12-05T16:36:54;102.20;;;30.17;;
60243;SDS011;46106;51.468;5.814;2022-12-05T16:39:21;85.53;;;28.00;;
60243;SDS011;46106;51.468;5.814;2022-12-05T16:41:48;92.82;;;29.63;;
60243;SDS011;46106;51.468;5.814;2022-12-05T16:46:56;100.60;;;31.75;;
60243;SDS011;46106;51.468;5.814;2022-12-05T16:49:34;113.10;;;31.88;;
60243;SDS011;46106;51.468;5.814;2022-12-05T16:52:01;113.18;;;32.25;;
60243;SDS011;46106;51.468;5.814;2022-12-05T16:54:38;117.03;;;33.83;;
60243;SDS011;46106;51.468;5.814;2022-12-05T16:57:04;117.93;;;32.20;;
60243;SDS011;46106;51.468;5.814;2022-12-05T16:59:31;124.68;;;34.22;;
60243;SDS011;46106;51.468;5.814;2022-12-05T17:01:58;129.40;;;35.10;;
60243;SDS011;46106;51.468;5.814;2022-12-05T17:04:25;125.10;;;35.25;;
60243;SDS011;46106;51.468;5.814;2022-12-05T17:06:51;128.77;;;38.13;;
60243;SDS011;46106;51.468;5.814;2022-12-05T17:09:17;144.88;;;37.38;;
60243;SDS011;46106;51.468;5.814;2022-12-05T17:11:45;130.52;;;36.78;;
60243;SDS011;46106;51.468;5.814;2022-12-05T17:14:13;142.80;;;38.40;;
60243;SDS011;46106;51.468;5.814;2022-12-05T17:16:40;146.82;;;39.10;;
60243;SDS011;46106;51.468;5.814;2022-12-05T17:19:07;139.85;;;41.85;;
60243;SDS011;46106;51.468;5.814;2022-12-05T17:21:36;142.05;;;40.20;;
60243;SDS011;46106;51.468;5.814;2022-12-05T17:24:04;143.75;;;40.28;;
60243;SDS011;46106;51.468;5.814;2022-12-05T17:26:30;147.73;;;42.03;;
60243;SDS011;46106;51.468;5.814;2022-12-05T17:28:55;152.35;;;41.90;;
60243;SDS011;46106;51.468;5.814;2022-12-05T17:31:21;149.68;;;42.42;;
60243;SDS011;46106;51.468;5.814;2022-12-05T17:33:48;170.88;;;44.10;;
60243;SDS011;46106;51.468;5.814;2022-12-05T17:36:15;156.80;;;41.95;;
60243;SDS011;46106;51.468;5.814;2022-12-05T17:38:41;163.70;;;44.63;;
60243;SDS011;46106;51.468;5.814;2022-12-05T17:41:08;154.68;;;42.80;;
60243;SDS011;46106;51.468;5.814;2022-12-05T17:43:39;172.65;;;42.80;;
60243;SDS011;46106;51.468;5.814;2022-12-05T17:46:05;174.38;;;43.25;;
60243;SDS011;46106;51.468;5.814;2022-12-05T17:48:31;174.05;;;45.08;;
60243;SDS011;46106;51.468;5.814;2022-12-05T17:50:57;163.40;;;42.00;;